x

Lake Winnipeg S. Basin (45140) Wave Buoy

3:00am - Tue 16th Sep 2014 All times are UTC.

  • Sig Wave height 1.3ft
  • Peak Period 3s
  • Wind
    16mph, 18mph gusts
  • Sea Temp 59°f
  • Air Temp 59°f
  • Sea Pressure 1014mb

More Historic Weather Station data

Upgrade to MSW Pro to gain access to the past 30 days of data for over 8000 Wavebouys and Weather Stations around the globe.

Join Pro

Comparision Forecast

View Surf forecast
   
Tue 09/16 3:00am 1.3ft 3s 16 18 mph 1014mb 59f 59f
2:00am 1.3ft 3s 13 18 mph 1014.5mb 59f 59f
1:00am 1.3ft 3s 11 13 mph 1014.9mb 59f 59f
12:00am 1.6ft 3s 13 16 mph 1015.5mb 59f 60f
Mon 09/15 11:00pm 1.6ft 3s 16 18 mph 1016.1mb 59f 61f
10:00pm 1.6ft 3s 13 18 mph 1016.4mb 59f 61f
9:00pm 1.6ft 3s 16 18 mph 1017mb 59f 60f
8:00pm 1.6ft 3s 13 18 mph 1017.4mb 59f 60f
7:00pm 1.6ft 3s 13 16 mph 1018.1mb 59f 60f
6:00pm 2ft 3s 13 18 mph 1018.3mb 58f 60f
5:00pm 2ft 3s 16 18 mph 1018.4mb 58f 58f
4:00pm 2.5ft 3s 18 22 mph 1018.7mb 58f 56f
3:00pm 2.5ft 3s 20 25 mph 1018.7mb 58f 55f
1:00pm 2.5ft 3s 20 25 mph 1018.8mb 58f 53f
12:00pm 2.5ft 3s 20 25 mph 1018.8mb 58f 52f
11:00am 1.6ft 3s 22 25 mph 1018.7mb 58f 52f
10:00am 1.3ft 4s 16 18 mph 1019.2mb 58f 52f
9:00am 1.6ft 3s 16 18 mph 1019.3mb 58f 52f
8:00am 1.3ft 3s 16 18 mph 1019.6mb 59f 52f
7:00am 1.3ft 3s 16 18 mph 1019.9mb 59f 52f
6:00am 1ft 2s 11 13 mph 1020mb 59f 52f
5:00am 1ft 3s 11 13 mph 1020mb 59f 51f
4:00am 1ft 3s 11 13 mph 1019.8mb 59f 51f
3:00am 1.3ft 3s 11 13 mph 1019.7mb 59f 51f
2:00am 1.3ft 3s 11 13 mph 1019.7mb 59f 52f
1:00am  -   -  13
mph
- - 52f
12:00am 2ft 3s 13 18 mph 1019.1mb 59f 51f
Sun 09/14 11:00pm 2ft 4s 18 22 mph 1019mb 59f 52f
10:00pm 2ft 3s 20 27 mph 1018.7mb 59f 52f
9:00pm 2.5ft 4s 13 18 mph 1018.4mb 59f 52f
8:00pm 2.5ft 3s 20 22 mph 1018.3mb 59f 51f
6:00pm 2ft 3s 18 20 mph 1017.9mb 59f 51f
5:00pm 2ft 3s 16 20 mph 1017.7mb 59f 52f
4:00pm 1.6ft 3s 18 20 mph 1017.5mb 59f 51f
3:00pm  -   -  16
mph
1016.9mb - 50f
2:00pm 1.6ft 3s 18 22 mph 1016.5mb 59f 50f
1:00pm 1.3ft 3s 18 22 mph 1015.8mb 59f 51f
12:00pm 1ft 2s 13 16 mph 1015.2mb 59f 51f
11:00am 0.7ft 3s 13 16 mph 1014.6mb 59f 52f
10:00am 1ft 3s 7 9 mph 1014.4mb 59f 52f
9:00am 1ft 3s 4 7 mph 1013.9mb 59f 51f
8:00am 1ft 3s 9 11 mph 1013.5mb 59f 51f
7:00am 1ft 3s 4 7 mph 1013.5mb 59f 53f
6:00am 1.3ft 3s 9 11 mph 1013.1mb 59f 53f
5:00am 1.6ft 3s 13 16 mph 1013mb 59f 54f
4:00am 2ft 3s 16 20 mph 1013.2mb 59f 54f
3:00am 1.6ft 3s 16 18 mph 1013.5mb 59f 55f
2:00am 1.3ft 3s 13 18 mph 1013.4mb 59f 56f
1:00am 1.6ft 3s 7 11 mph 1013.6mb 59f 57f
12:00am 1.6ft 3s 16 18 mph 1013.6mb 59f 58f
Sat 09/13 11:00pm 1.6ft 4s 11 13 mph 1014.1mb 59f 59f
10:00pm 2ft 4s 13 16 mph 1014.3mb 59f 58f
9:00pm 2.5ft 4s 16 18 mph 1014.7mb 59f 58f
8:00pm 2.5ft 4s 18 22 mph 1014.9mb 59f 57f
7:00pm 2.5ft 4s 18 22 mph 1015.6mb 59f 56f
6:00pm 2.5ft 4s 18 22 mph 1016.6mb 59f 53f
4:00pm 3ft 4s 20 25 mph 1017.5mb 59f 52f
3:00pm 3ft 4s 22 25 mph 1017.6mb 59f 51f
2:00pm 3.5ft 4s 20 25 mph 1018mb 60f 52f
1:00pm 3ft 4s 22 27 mph 1018.5mb 60f 50f
12:00pm 2.5ft 4s 22
mph
1018.7mb 60f 50f
11:00am 2.5ft 4s 20 22 mph 1019mb 60f 50f
10:00am 2.5ft 4s 20 25 mph 1019.3mb 60f 51f
9:00am 2.5ft 4s 20 25 mph 1019.5mb 60f 52f
8:00am 2.5ft 4s 20 25 mph 1019.8mb 60f 53f
7:00am 2.5ft 4s 22 25 mph 1020.3mb 60f 53f
6:00am 2.5ft 4s 18 22 mph 1020.7mb 60f 54f
5:00am 2.5ft 4s 20 25 mph 1021.1mb 60f 54f
4:00am 2.5ft 4s 20 25 mph 1021.4mb 60f 55f
3:00am 2ft 4s 20 22 mph 1021.8mb 60f 55f
2:00am 1.6ft 3s 18 22 mph 1022.3mb 60f 55f
1:00am 1.6ft 3s 16 20 mph 1022.7mb 60f 54f
12:00am 1.6ft 3s 16 25 mph 1023.3mb 60f 54f
Fri 09/12 11:00pm 1.6ft 3s 13 18 mph 1024mb 60f 53f
10:00pm 1.6ft 3s 18 22 mph 1024.6mb 60f 53f
9:00pm 1.6ft 3s 16 20 mph 1025.5mb 60f 52f
8:00pm 1.6ft 3s 16 20 mph 1026.3mb 60f 52f
7:00pm 1.3ft 3s 16 20 mph 1027mb 60f 52f
6:00pm 1.3ft 3s 16 18 mph 1027.8mb 60f 51f
5:00pm 1.3ft 3s 13 20 mph 1028.6mb 60f 51f
4:00pm 1.3ft 3s 16 20 mph 1029.1mb 60f 50f
3:00pm 1.3ft 3s 13 18 mph 1029.2mb 60f 50f
2:00pm 1.3ft 3s 13
mph
1029.6mb 60f 49f
1:00pm 1.6ft 3s 13 16 mph 1029.7mb 60f 49f
12:00pm 1.6ft 3s 16 18 mph 1029.6mb 60f 49f
11:00am 1.6ft 3s 16 18 mph 1029.6mb 60f 48f
10:00am 1.6ft 3s 16 18 mph 1029.4mb 60f 50f
9:00am 1.3ft 3s 16 20 mph 1029.3mb 60f 50f
8:00am 1.3ft 3s 16 18 mph 1029.3mb 60f 50f
7:00am 1.3ft 2s 16 18 mph 1029.6mb 60f 51f
6:00am 1.3ft 3s 13 16 mph 1029.7mb 60f 51f
5:00am 1.3ft 3s 16 18 mph 1029.6mb 60f 51f